sensor_id;sensor_type;location;lat;lon;timestamp;P1;durP1;ratioP1;P2;durP2;ratioP2
54705;SDS011;40603;48.774;8.916;2022-08-24T00:00:52;18.85;;;17.52;;
54705;SDS011;40603;48.774;8.916;2022-08-24T00:03:17;19.92;;;18.70;;
54705;SDS011;40603;48.774;8.916;2022-08-24T00:05:43;21.70;;;20.33;;
54705;SDS011;40603;48.774;8.916;2022-08-24T00:08:08;19.33;;;18.08;;
54705;SDS011;40603;48.774;8.916;2022-08-24T00:10:33;20.45;;;19.13;;
54705;SDS011;40603;48.774;8.916;2022-08-24T00:12:59;22.73;;;21.10;;
54705;SDS011;40603;48.774;8.916;2022-08-24T00:15:24;20.20;;;18.98;;
54705;SDS011;40603;48.774;8.916;2022-08-24T00:17:49;17.90;;;16.60;;
54705;SDS011;40603;48.774;8.916;2022-08-24T00:20:15;22.20;;;20.60;;
54705;SDS011;40603;48.774;8.916;2022-08-24T00:22:41;22.48;;;21.10;;
54705;SDS011;40603;48.774;8.916;2022-08-24T00:25:08;25.63;;;23.70;;
54705;SDS011;40603;48.774;8.916;2022-08-24T00:27:34;27.88;;;26.17;;
54705;SDS011;40603;48.774;8.916;2022-08-24T00:30:01;25.58;;;23.90;;
54705;SDS011;40603;48.774;8.916;2022-08-24T00:32:28;23.20;;;21.75;;
54705;SDS011;40603;48.774;8.916;2022-08-24T00:34:54;22.02;;;20.45;;
54705;SDS011;40603;48.774;8.916;2022-08-24T00:37:19;23.55;;;22.10;;
54705;SDS011;40603;48.774;8.916;2022-08-24T00:39:44;25.17;;;23.50;;
54705;SDS011;40603;48.774;8.916;2022-08-24T00:42:09;24.63;;;23.05;;
54705;SDS011;40603;48.774;8.916;2022-08-24T00:44:35;22.50;;;20.75;;
54705;SDS011;40603;48.774;8.916;2022-08-24T00:47:01;24.38;;;22.70;;
54705;SDS011;40603;48.774;8.916;2022-08-24T00:49:39;20.52;;;19.25;;
54705;SDS011;40603;48.774;8.916;2022-08-24T00:52:13;19.88;;;18.23;;
54705;SDS011;40603;48.774;8.916;2022-08-24T00:54:41;18.55;;;16.75;;
54705;SDS011;40603;48.774;8.916;2022-08-24T00:57:08;19.65;;;18.42;;
54705;SDS011;40603;48.774;8.916;2022-08-24T00:59:38;20.75;;;19.35;;
54705;SDS011;40603;48.774;8.916;2022-08-24T01:02:09;19.15;;;17.42;;
54705;SDS011;40603;48.774;8.916;2022-08-24T01:04:40;18.05;;;16.60;;
54705;SDS011;40603;48.774;8.916;2022-08-24T01:07:11;19.38;;;18.05;;
54705;SDS011;40603;48.774;8.916;2022-08-24T01:09:37;17.73;;;16.33;;
54705;SDS011;40603;48.774;8.916;2022-08-24T01:12:02;18.42;;;17.13;;
54705;SDS011;40603;48.774;8.916;2022-08-24T01:14:28;16.73;;;15.57;;
54705;SDS011;40603;48.774;8.916;2022-08-24T01:16:53;16.63;;;15.40;;
54705;SDS011;40603;48.774;8.916;2022-08-24T01:19:39;16.38;;;15.25;;
54705;SDS011;40603;48.774;8.916;2022-08-24T01:22:14;15.40;;;13.85;;
54705;SDS011;40603;48.774;8.916;2022-08-24T01:24:44;17.17;;;15.80;;
54705;SDS011;40603;48.774;8.916;2022-08-24T01:27:10;22.73;;;19.33;;
54705;SDS011;40603;48.774;8.916;2022-08-24T01:29:38;16.60;;;15.20;;
54705;SDS011;40603;48.774;8.916;2022-08-24T01:32:05;16.25;;;14.85;;
54705;SDS011;40603;48.774;8.916;2022-08-24T01:34:31;14.88;;;13.77;;
54705;SDS011;40603;48.774;8.916;2022-08-24T01:36:56;16.65;;;15.40;;
54705;SDS011;40603;48.774;8.916;2022-08-24T01:39:33;13.73;;;12.80;;
54705;SDS011;40603;48.774;8.916;2022-08-24T01:42:02;15.38;;;14.18;;
54705;SDS011;40603;48.774;8.916;2022-08-24T01:44:28;14.63;;;13.63;;
54705;SDS011;40603;48.774;8.916;2022-08-24T01:46:57;13.80;;;12.80;;
54705;SDS011;40603;48.774;8.916;2022-08-24T01:49:24;14.60;;;13.32;;
54705;SDS011;40603;48.774;8.916;2022-08-24T01:51:52;13.05;;;11.95;;
54705;SDS011;40603;48.774;8.916;2022-08-24T01:54:17;14.52;;;13.48;;
54705;SDS011;40603;48.774;8.916;2022-08-24T01:56:43;16.40;;;15.18;;
54705;SDS011;40603;48.774;8.916;2022-08-24T01:59:08;14.40;;;13.43;;
54705;SDS011;40603;48.774;8.916;2022-08-24T02:01:37;15.27;;;14.05;;
54705;SDS011;40603;48.774;8.916;2022-08-24T02:04:05;14.63;;;13.63;;
54705;SDS011;40603;48.774;8.916;2022-08-24T02:06:32;14.85;;;13.85;;
54705;SDS011;40603;48.774;8.916;2022-08-24T02:08:57;14.52;;;13.50;;
54705;SDS011;40603;48.774;8.916;2022-08-24T02:11:23;17.20;;;16.10;;
54705;SDS011;40603;48.774;8.916;2022-08-24T02:13:48;15.23;;;14.20;;
54705;SDS011;40603;48.774;8.916;2022-08-24T02:16:14;14.93;;;13.85;;
54705;SDS011;40603;48.774;8.916;2022-08-24T02:18:39;16.38;;;14.82;;
54705;SDS011;40603;48.774;8.916;2022-08-24T02:21:05;16.33;;;15.13;;
54705;SDS011;40603;48.774;8.916;2022-08-24T02:23:35;15.05;;;13.85;;
54705;SDS011;40603;48.774;8.916;2022-08-24T02:26:02;16.38;;;15.15;;
54705;SDS011;40603;48.774;8.916;2022-08-24T02:28:28;15.95;;;14.80;;
54705;SDS011;40603;48.774;8.916;2022-08-24T02:30:53;14.32;;;13.25;;
54705;SDS011;40603;48.774;8.916;2022-08-24T02:33:19;15.63;;;14.48;;
54705;SDS011;40603;48.774;8.916;2022-08-24T02:35:44;19.63;;;18.27;;
54705;SDS011;40603;48.774;8.916;2022-08-24T02:38:09;20.08;;;18.65;;
54705;SDS011;40603;48.774;8.916;2022-08-24T02:40:35;14.68;;;13.50;;
54705;SDS011;40603;48.774;8.916;2022-08-24T02:43:01;21.10;;;19.67;;
54705;SDS011;40603;48.774;8.916;2022-08-24T02:45:26;23.65;;;21.98;;
54705;SDS011;40603;48.774;8.916;2022-08-24T02:47:52;21.67;;;20.10;;
54705;SDS011;40603;48.774;8.916;2022-08-24T02:50:17;20.15;;;18.58;;
54705;SDS011;40603;48.774;8.916;2022-08-24T02:52:43;14.52;;;13.43;;
54705;SDS011;40603;48.774;8.916;2022-08-24T02:55:11;22.17;;;20.45;;
54705;SDS011;40603;48.774;8.916;2022-08-24T02:57:39;17.00;;;15.90;;
54705;SDS011;40603;48.774;8.916;2022-08-24T03:00:06;17.88;;;16.75;;
54705;SDS011;40603;48.774;8.916;2022-08-24T03:02:34;18.53;;;17.13;;
54705;SDS011;40603;48.774;8.916;2022-08-24T03:04:59;20.83;;;19.48;;
54705;SDS011;40603;48.774;8.916;2022-08-24T03:07:25;20.92;;;19.48;;
54705;SDS011;40603;48.774;8.916;2022-08-24T03:09:52;19.95;;;18.08;;
54705;SDS011;40603;48.774;8.916;2022-08-24T03:12:17;17.33;;;16.08;;
54705;SDS011;40603;48.774;8.916;2022-08-24T03:14:42;19.00;;;17.27;;
54705;SDS011;40603;48.774;8.916;2022-08-24T03:17:08;21.15;;;19.63;;
54705;SDS011;40603;48.774;8.916;2022-08-24T03:19:34;17.35;;;15.75;;
54705;SDS011;40603;48.774;8.916;2022-08-24T03:21:59;14.73;;;13.60;;
54705;SDS011;40603;48.774;8.916;2022-08-24T03:24:25;15.15;;;13.93;;
54705;SDS011;40603;48.774;8.916;2022-08-24T03:26:50;14.35;;;13.30;;
54705;SDS011;40603;48.774;8.916;2022-08-24T03:29:16;16.52;;;15.25;;
54705;SDS011;40603;48.774;8.916;2022-08-24T03:31:41;15.18;;;13.98;;
54705;SDS011;40603;48.774;8.916;2022-08-24T03:34:06;16.77;;;15.45;;
54705;SDS011;40603;48.774;8.916;2022-08-24T03:36:32;16.73;;;15.45;;
54705;SDS011;40603;48.774;8.916;2022-08-24T03:38:57;14.63;;;13.60;;
54705;SDS011;40603;48.774;8.916;2022-08-24T03:41:22;23.23;;;21.40;;
54705;SDS011;40603;48.774;8.916;2022-08-24T03:43:48;17.73;;;16.02;;
54705;SDS011;40603;48.774;8.916;2022-08-24T03:46:14;18.15;;;16.55;;
54705;SDS011;40603;48.774;8.916;2022-08-24T03:48:44;14.50;;;13.43;;
54705;SDS011;40603;48.774;8.916;2022-08-24T03:51:16;16.52;;;15.43;;
54705;SDS011;40603;48.774;8.916;2022-08-24T03:53:42;15.43;;;14.10;;
54705;SDS011;40603;48.774;8.916;2022-08-24T03:56:08;15.38;;;14.10;;
54705;SDS011;40603;48.774;8.916;2022-08-24T03:58:35;16.65;;;15.43;;
54705;SDS011;40603;48.774;8.916;2022-08-24T04:01:01;14.88;;;13.55;;
54705;SDS011;40603;48.774;8.916;2022-08-24T04:03:27;17.45;;;15.95;;
54705;SDS011;40603;48.774;8.916;2022-08-24T04:05:52;17.15;;;15.80;;
54705;SDS011;40603;48.774;8.916;2022-08-24T04:08:17;17.52;;;16.13;;
54705;SDS011;40603;48.774;8.916;2022-08-24T04:10:44;24.67;;;22.73;;
54705;SDS011;40603;48.774;8.916;2022-08-24T04:13:10;23.80;;;22.25;;
54705;SDS011;40603;48.774;8.916;2022-08-24T04:15:38;22.70;;;20.73;;
54705;SDS011;40603;48.774;8.916;2022-08-24T04:18:04;21.33;;;19.70;;
54705;SDS011;40603;48.774;8.916;2022-08-24T04:20:30;20.63;;;19.17;;
54705;SDS011;40603;48.774;8.916;2022-08-24T04:22:55;17.00;;;15.82;;
54705;SDS011;40603;48.774;8.916;2022-08-24T04:25:20;21.27;;;19.27;;
54705;SDS011;40603;48.774;8.916;2022-08-24T04:27:46;21.90;;;20.45;;
54705;SDS011;40603;48.774;8.916;2022-08-24T04:30:11;24.73;;;23.02;;
54705;SDS011;40603;48.774;8.916;2022-08-24T04:32:38;23.40;;;21.45;;
54705;SDS011;40603;48.774;8.916;2022-08-24T04:35:03;41.75;;;39.17;;
54705;SDS011;40603;48.774;8.916;2022-08-24T04:37:28;50.00;;;46.90;;
54705;SDS011;40603;48.774;8.916;2022-08-24T04:39:54;61.05;;;57.03;;
54705;SDS011;40603;48.774;8.916;2022-08-24T04:42:19;61.72;;;57.88;;
54705;SDS011;40603;48.774;8.916;2022-08-24T04:44:44;60.70;;;56.75;;
54705;SDS011;40603;48.774;8.916;2022-08-24T04:47:10;58.30;;;54.10;;
54705;SDS011;40603;48.774;8.916;2022-08-24T04:49:35;44.05;;;41.33;;
54705;SDS011;40603;48.774;8.916;2022-08-24T04:52:02;28.80;;;26.77;;
54705;SDS011;40603;48.774;8.916;2022-08-24T04:54:28;28.63;;;26.73;;
54705;SDS011;40603;48.774;8.916;2022-08-24T04:56:54;41.08;;;38.38;;
54705;SDS011;40603;48.774;8.916;2022-08-24T04:59:19;32.53;;;30.00;;
54705;SDS011;40603;48.774;8.916;2022-08-24T05:01:44;24.83;;;23.02;;
54705;SDS011;40603;48.774;8.916;2022-08-24T05:04:10;31.70;;;29.70;;
54705;SDS011;40603;48.774;8.916;2022-08-24T05:06:35;21.45;;;20.02;;
54705;SDS011;40603;48.774;8.916;2022-08-24T05:09:02;25.35;;;23.30;;
54705;SDS011;40603;48.774;8.916;2022-08-24T05:11:28;37.45;;;34.85;;
54705;SDS011;40603;48.774;8.916;2022-08-24T05:13:54;50.53;;;47.35;;
54705;SDS011;40603;48.774;8.916;2022-08-24T05:16:20;56.30;;;52.85;;
54705;SDS011;40603;48.774;8.916;2022-08-24T05:18:47;61.33;;;57.53;;
54705;SDS011;40603;48.774;8.916;2022-08-24T05:21:13;58.58;;;54.80;;
54705;SDS011;40603;48.774;8.916;2022-08-24T05:23:40;66.60;;;62.30;;
54705;SDS011;40603;48.774;8.916;2022-08-24T05:26:10;54.95;;;51.55;;
54705;SDS011;40603;48.774;8.916;2022-08-24T05:28:39;58.42;;;54.83;;
54705;SDS011;40603;48.774;8.916;2022-08-24T05:31:06;55.50;;;51.83;;
54705;SDS011;40603;48.774;8.916;2022-08-24T05:33:36;48.92;;;45.90;;
54705;SDS011;40603;48.774;8.916;2022-08-24T05:36:02;61.08;;;57.38;;
54705;SDS011;40603;48.774;8.916;2022-08-24T05:38:28;90.88;;;85.00;;
54705;SDS011;40603;48.774;8.916;2022-08-24T05:40:54;86.97;;;81.65;;
54705;SDS011;40603;48.774;8.916;2022-08-24T05:43:19;116.25;;;108.72;;
54705;SDS011;40603;48.774;8.916;2022-08-24T05:45:44;99.88;;;93.20;;
54705;SDS011;40603;48.774;8.916;2022-08-24T05:48:10;124.88;;;116.95;;
54705;SDS011;40603;48.774;8.916;2022-08-24T05:50:35;91.97;;;86.28;;
54705;SDS011;40603;48.774;8.916;2022-08-24T05:53:01;85.53;;;79.85;;
54705;SDS011;40603;48.774;8.916;2022-08-24T05:55:27;82.60;;;77.30;;
54705;SDS011;40603;48.774;8.916;2022-08-24T05:57:54;45.22;;;42.40;;
54705;SDS011;40603;48.774;8.916;2022-08-24T06:00:20;44.40;;;41.25;;
54705;SDS011;40603;48.774;8.916;2022-08-24T06:02:47;32.28;;;30.23;;
54705;SDS011;40603;48.774;8.916;2022-08-24T06:05:12;25.95;;;24.17;;
54705;SDS011;40603;48.774;8.916;2022-08-24T06:07:38;19.85;;;18.55;;
54705;SDS011;40603;48.774;8.916;2022-08-24T06:10:03;17.33;;;15.90;;
54705;SDS011;40603;48.774;8.916;2022-08-24T06:12:28;14.75;;;13.75;;
54705;SDS011;40603;48.774;8.916;2022-08-24T06:14:54;12.77;;;11.90;;
54705;SDS011;40603;48.774;8.916;2022-08-24T06:17:19;12.48;;;11.57;;
54705;SDS011;40603;48.774;8.916;2022-08-24T06:19:44;11.18;;;10.18;;
54705;SDS011;40603;48.774;8.916;2022-08-24T06:22:10;12.02;;;11.00;;
54705;SDS011;40603;48.774;8.916;2022-08-24T06:24:35;12.23;;;11.15;;
54705;SDS011;40603;48.774;8.916;2022-08-24T06:27:19;13.57;;;12.43;;
54705;SDS011;40603;48.774;8.916;2022-08-24T06:29:45;14.05;;;12.60;;
54705;SDS011;40603;48.774;8.916;2022-08-24T06:32:11;12.98;;;11.82;;
54705;SDS011;40603;48.774;8.916;2022-08-24T06:34:36;14.18;;;13.10;;
54705;SDS011;40603;48.774;8.916;2022-08-24T06:37:03;15.07;;;14.07;;
54705;SDS011;40603;48.774;8.916;2022-08-24T06:39:28;17.98;;;16.63;;
54705;SDS011;40603;48.774;8.916;2022-08-24T06:41:53;17.60;;;16.52;;
54705;SDS011;40603;48.774;8.916;2022-08-24T06:44:19;18.08;;;16.73;;
54705;SDS011;40603;48.774;8.916;2022-08-24T06:46:44;19.27;;;17.92;;
54705;SDS011;40603;48.774;8.916;2022-08-24T06:49:09;18.05;;;16.85;;
54705;SDS011;40603;48.774;8.916;2022-08-24T06:51:34;16.42;;;15.20;;
54705;SDS011;40603;48.774;8.916;2022-08-24T06:54:00;18.02;;;16.75;;
54705;SDS011;40603;48.774;8.916;2022-08-24T06:56:25;18.20;;;16.77;;
54705;SDS011;40603;48.774;8.916;2022-08-24T06:58:51;20.25;;;18.85;;
54705;SDS011;40603;48.774;8.916;2022-08-24T07:01:18;18.58;;;17.08;;
54705;SDS011;40603;48.774;8.916;2022-08-24T07:03:44;20.95;;;19.17;;
54705;SDS011;40603;48.774;8.916;2022-08-24T07:06:10;20.67;;;18.88;;
54705;SDS011;40603;48.774;8.916;2022-08-24T07:08:38;18.77;;;17.27;;
54705;SDS011;40603;48.774;8.916;2022-08-24T07:11:05;20.58;;;18.98;;
54705;SDS011;40603;48.774;8.916;2022-08-24T07:13:31;19.10;;;17.40;;
54705;SDS011;40603;48.774;8.916;2022-08-24T07:15:57;20.25;;;18.85;;
54705;SDS011;40603;48.774;8.916;2022-08-24T07:18:22;17.70;;;16.60;;
54705;SDS011;40603;48.774;8.916;2022-08-24T07:20:48;18.20;;;16.77;;
54705;SDS011;40603;48.774;8.916;2022-08-24T07:23:14;15.05;;;13.90;;
54705;SDS011;40603;48.774;8.916;2022-08-24T07:25:40;16.52;;;15.13;;
54705;SDS011;40603;48.774;8.916;2022-08-24T07:28:06;13.73;;;12.73;;
54705;SDS011;40603;48.774;8.916;2022-08-24T07:30:31;14.63;;;12.35;;
54705;SDS011;40603;48.774;8.916;2022-08-24T07:32:57;10.82;;;9.88;;
54705;SDS011;40603;48.774;8.916;2022-08-24T07:35:23;13.05;;;11.45;;
54705;SDS011;40603;48.774;8.916;2022-08-24T07:37:50;19.80;;;15.82;;
54705;SDS011;40603;48.774;8.916;2022-08-24T07:40:16;16.60;;;14.95;;
54705;SDS011;40603;48.774;8.916;2022-08-24T07:42:41;16.13;;;10.63;;
54705;SDS011;40603;48.774;8.916;2022-08-24T07:45:08;16.02;;;14.50;;
54705;SDS011;40603;48.774;8.916;2022-08-24T07:47:34;12.13;;;8.43;;
54705;SDS011;40603;48.774;8.916;2022-08-24T07:49:59;15.98;;;5.28;;
54705;SDS011;40603;48.774;8.916;2022-08-24T07:52:24;6.15;;;5.03;;
54705;SDS011;40603;48.774;8.916;2022-08-24T07:54:50;9.32;;;4.25;;
54705;SDS011;40603;48.774;8.916;2022-08-24T07:57:15;7.70;;;3.58;;
54705;SDS011;40603;48.774;8.916;2022-08-24T07:59:41;5.07;;;3.25;;
54705;SDS011;40603;48.774;8.916;2022-08-24T08:02:07;7.60;;;3.40;;
54705;SDS011;40603;48.774;8.916;2022-08-24T08:04:33;7.38;;;2.35;;
54705;SDS011;40603;48.774;8.916;2022-08-24T08:06:58;9.18;;;2.65;;
54705;SDS011;40603;48.774;8.916;2022-08-24T08:09:27;6.53;;;2.50;;
54705;SDS011;40603;48.774;8.916;2022-08-24T08:11:52;7.47;;;2.30;;
54705;SDS011;40603;48.774;8.916;2022-08-24T08:14:17;3.55;;;2.28;;
54705;SDS011;40603;48.774;8.916;2022-08-24T08:16:43;5.03;;;1.92;;
54705;SDS011;40603;48.774;8.916;2022-08-24T08:19:08;7.00;;;1.98;;
54705;SDS011;40603;48.774;8.916;2022-08-24T08:21:33;4.57;;;1.65;;
54705;SDS011;40603;48.774;8.916;2022-08-24T08:24:17;5.38;;;1.67;;
54705;SDS011;40603;48.774;8.916;2022-08-24T08:26:43;4.95;;;2.08;;
54705;SDS011;40603;48.774;8.916;2022-08-24T08:29:09;6.28;;;2.28;;
54705;SDS011;40603;48.774;8.916;2022-08-24T08:31:36;4.70;;;1.90;;
54705;SDS011;40603;48.774;8.916;2022-08-24T08:34:02;3.45;;;1.90;;
54705;SDS011;40603;48.774;8.916;2022-08-24T08:36:29;5.03;;;2.60;;
54705;SDS011;40603;48.774;8.916;2022-08-24T08:38:54;3.80;;;1.80;;
54705;SDS011;40603;48.774;8.916;2022-08-24T08:41:42;4.13;;;2.03;;
54705;SDS011;40603;48.774;8.916;2022-08-24T08:55:44;4.05;;;1.73;;
54705;SDS011;40603;48.774;8.916;2022-08-24T08:58:38;4.00;;;1.92;;
54705;SDS011;40603;48.774;8.916;2022-08-24T09:09:24;2.60;;;1.50;;
54705;SDS011;40603;48.774;8.916;2022-08-24T09:12:10;4.38;;;2.00;;
54705;SDS011;40603;48.774;8.916;2022-08-24T09:20:12;4.03;;;1.60;;
54705;SDS011;40603;48.774;8.916;2022-08-24T09:22:41;6.03;;;1.63;;
54705;SDS011;40603;48.774;8.916;2022-08-24T09:25:21;5.20;;;1.70;;
54705;SDS011;40603;48.774;8.916;2022-08-24T09:30:31;1.52;;;1.42;;
54705;SDS011;40603;48.774;8.916;2022-08-24T09:33:21;4.45;;;1.58;;
54705;SDS011;40603;48.774;8.916;2022-08-24T09:41:23;5.70;;;1.17;;
54705;SDS011;40603;48.774;8.916;2022-08-24T09:44:19;5.07;;;1.33;;
54705;SDS011;40603;48.774;8.916;2022-08-24T09:47:11;2.95;;;1.38;;
54705;SDS011;40603;48.774;8.916;2022-08-24T09:52:56;5.78;;;1.17;;
54705;SDS011;40603;48.774;8.916;2022-08-24T10:00:44;2.22;;;1.58;;
54705;SDS011;40603;48.774;8.916;2022-08-24T10:03:25;9.77;;;1.20;;
54705;SDS011;40603;48.774;8.916;2022-08-24T10:06:20;3.03;;;1.38;;
54705;SDS011;40603;48.774;8.916;2022-08-24T10:14:22;1.98;;;1.30;;
54705;SDS011;40603;48.774;8.916;2022-08-24T10:31:04;3.33;;;1.50;;
54705;SDS011;40603;48.774;8.916;2022-08-24T10:33:34;2.33;;;1.33;;
54705;SDS011;40603;48.774;8.916;2022-08-24T10:36:22;2.63;;;1.27;;
54705;SDS011;40603;48.774;8.916;2022-08-24T10:45:12;1.92;;;1.20;;
54705;SDS011;40603;48.774;8.916;2022-08-24T10:47:49;2.67;;;1.70;;
54705;SDS011;40603;48.774;8.916;2022-08-24T10:50:26;2.95;;;1.73;;
54705;SDS011;40603;48.774;8.916;2022-08-24T10:53:12;4.13;;;1.30;;
54705;SDS011;40603;48.774;8.916;2022-08-24T10:56:03;2.75;;;1.60;;
54705;SDS011;40603;48.774;8.916;2022-08-24T11:01:15;2.88;;;1.60;;
54705;SDS011;40603;48.774;8.916;2022-08-24T11:04:00;2.80;;;1.40;;
54705;SDS011;40603;48.774;8.916;2022-08-24T11:06:30;2.38;;;1.40;;
54705;SDS011;40603;48.774;8.916;2022-08-24T11:08:59;2.65;;;1.50;;
54705;SDS011;40603;48.774;8.916;2022-08-24T11:11:38;2.33;;;1.77;;
54705;SDS011;40603;48.774;8.916;2022-08-24T11:14:21;2.60;;;1.38;;
54705;SDS011;40603;48.774;8.916;2022-08-24T11:16:53;1.77;;;1.30;;
54705;SDS011;40603;48.774;8.916;2022-08-24T11:19:38;2.30;;;1.40;;
54705;SDS011;40603;48.774;8.916;2022-08-24T11:24:57;3.30;;;1.98;;
54705;SDS011;40603;48.774;8.916;2022-08-24T11:29:59;3.90;;;1.40;;
54705;SDS011;40603;48.774;8.916;2022-08-24T11:32:31;2.45;;;1.67;;
54705;SDS011;40603;48.774;8.916;2022-08-24T11:35:22;2.42;;;1.65;;
54705;SDS011;40603;48.774;8.916;2022-08-24T11:40:43;3.47;;;1.42;;
54705;SDS011;40603;48.774;8.916;2022-08-24T11:46:24;4.45;;;1.45;;
54705;SDS011;40603;48.774;8.916;2022-08-24T11:51:50;2.55;;;1.60;;
54705;SDS011;40603;48.774;8.916;2022-08-24T11:54:27;1.90;;;1.38;;
54705;SDS011;40603;48.774;8.916;2022-08-24T11:57:40;2.33;;;1.48;;
54705;SDS011;40603;48.774;8.916;2022-08-24T11:59:49;5.28;;;1.75;;
54705;SDS011;40603;48.774;8.916;2022-08-24T12:10:40;2.00;;;1.08;;
54705;SDS011;40603;48.774;8.916;2022-08-24T12:18:27;2.17;;;1.05;;
54705;SDS011;40603;48.774;8.916;2022-08-24T12:21:07;2.83;;;1.42;;
54705;SDS011;40603;48.774;8.916;2022-08-24T12:26:07;1.88;;;1.40;;
54705;SDS011;40603;48.774;8.916;2022-08-24T12:28:51;1.27;;;1.17;;
54705;SDS011;40603;48.774;8.916;2022-08-24T12:31:20;1.85;;;1.27;;
54705;SDS011;40603;48.774;8.916;2022-08-24T12:33:56;1.42;;;1.10;;
54705;SDS011;40603;48.774;8.916;2022-08-24T12:36:24;4.60;;;1.08;;
54705;SDS011;40603;48.774;8.916;2022-08-24T12:39:06;3.03;;;1.10;;
54705;SDS011;40603;48.774;8.916;2022-08-24T12:44:39;2.25;;;1.20;;
54705;SDS011;40603;48.774;8.916;2022-08-24T12:47:08;5.53;;;1.65;;
54705;SDS011;40603;48.774;8.916;2022-08-24T12:49:37;4.13;;;1.70;;
54705;SDS011;40603;48.774;8.916;2022-08-24T13:01:04;3.90;;;1.35;;
54705;SDS011;40603;48.774;8.916;2022-08-24T13:03:38;2.78;;;1.70;;
54705;SDS011;40603;48.774;8.916;2022-08-24T13:06:06;5.07;;;1.50;;
54705;SDS011;40603;48.774;8.916;2022-08-24T13:08:42;1.33;;;1.10;;
54705;SDS011;40603;48.774;8.916;2022-08-24T13:11:13;3.95;;;1.45;;
54705;SDS011;40603;48.774;8.916;2022-08-24T13:21:58;1.55;;;1.13;;
54705;SDS011;40603;48.774;8.916;2022-08-24T13:29:36;2.95;;;1.50;;
54705;SDS011;40603;48.774;8.916;2022-08-24T13:32:03;1.23;;;1.13;;
54705;SDS011;40603;48.774;8.916;2022-08-24T13:37:20;5.18;;;1.65;;
54705;SDS011;40603;48.774;8.916;2022-08-24T13:45:34;2.85;;;1.00;;
54705;SDS011;40603;48.774;8.916;2022-08-24T13:50:32;1.42;;;1.25;;
54705;SDS011;40603;48.774;8.916;2022-08-24T13:53:15;2.38;;;1.45;;
54705;SDS011;40603;48.774;8.916;2022-08-24T13:58:53;2.08;;;1.42;;
54705;SDS011;40603;48.774;8.916;2022-08-24T14:01:49;2.15;;;1.25;;
54705;SDS011;40603;48.774;8.916;2022-08-24T14:12:41;2.08;;;1.83;;
54705;SDS011;40603;48.774;8.916;2022-08-24T14:48:05;1.85;;;1.30;;
54705;SDS011;40603;48.774;8.916;2022-08-24T14:59:49;1.50;;;1.05;;
54705;SDS011;40603;48.774;8.916;2022-08-24T15:05:38;2.08;;;1.50;;
54705;SDS011;40603;48.774;8.916;2022-08-24T15:07:38;3.75;;;1.23;;
54705;SDS011;40603;48.774;8.916;2022-08-24T15:10:10;1.35;;;1.20;;
54705;SDS011;40603;48.774;8.916;2022-08-24T15:12:50;1.90;;;1.10;;
54705;SDS011;40603;48.774;8.916;2022-08-24T15:15:29;3.25;;;1.30;;
54705;SDS011;40603;48.774;8.916;2022-08-24T15:18:02;1.92;;;1.65;;
54705;SDS011;40603;48.774;8.916;2022-08-24T15:20:43;3.05;;;1.38;;
54705;SDS011;40603;48.774;8.916;2022-08-24T15:23:44;3.22;;;1.30;;
54705;SDS011;40603;48.774;8.916;2022-08-24T15:26:16;1.77;;;1.27;;
54705;SDS011;40603;48.774;8.916;2022-08-24T15:28:48;2.25;;;1.55;;
54705;SDS011;40603;48.774;8.916;2022-08-24T15:31:17;2.00;;;1.40;;
54705;SDS011;40603;48.774;8.916;2022-08-24T15:33:58;2.13;;;1.40;;
54705;SDS011;40603;48.774;8.916;2022-08-24T15:36:28;1.38;;;1.27;;
54705;SDS011;40603;48.774;8.916;2022-08-24T15:38:56;5.43;;;1.30;;
54705;SDS011;40603;48.774;8.916;2022-08-24T15:41:23;1.40;;;1.30;;
54705;SDS011;40603;48.774;8.916;2022-08-24T15:46:33;3.35;;;1.50;;
54705;SDS011;40603;48.774;8.916;2022-08-24T15:49:13;1.35;;;1.20;;
54705;SDS011;40603;48.774;8.916;2022-08-24T15:51:55;4.63;;;1.55;;
54705;SDS011;40603;48.774;8.916;2022-08-24T15:57:04;1.55;;;1.45;;
54705;SDS011;40603;48.774;8.916;2022-08-24T15:59:50;1.40;;;1.30;;
54705;SDS011;40603;48.774;8.916;2022-08-24T16:02:25;2.65;;;1.50;;
54705;SDS011;40603;48.774;8.916;2022-08-24T16:10:31;2.97;;;1.48;;
54705;SDS011;40603;48.774;8.916;2022-08-24T16:18:43;2.65;;;1.60;;
54705;SDS011;40603;48.774;8.916;2022-08-24T16:21:53;3.95;;;1.77;;
54705;SDS011;40603;48.774;8.916;2022-08-24T16:24:11;1.23;;;1.13;;
54705;SDS011;40603;48.774;8.916;2022-08-24T16:32:09;1.50;;;1.40;;
54705;SDS011;40603;48.774;8.916;2022-08-24T16:34:40;4.03;;;1.80;;
54705;SDS011;40603;48.774;8.916;2022-08-24T16:37:07;2.50;;;1.27;;
54705;SDS011;40603;48.774;8.916;2022-08-24T16:39:33;3.25;;;1.20;;
54705;SDS011;40603;48.774;8.916;2022-08-24T16:41:59;3.03;;;1.52;;
54705;SDS011;40603;48.774;8.916;2022-08-24T16:44:37;3.38;;;1.83;;
54705;SDS011;40603;48.774;8.916;2022-08-24T16:47:05;5.88;;;2.70;;
54705;SDS011;40603;48.774;8.916;2022-08-24T16:49:31;4.03;;;2.22;;
54705;SDS011;40603;48.774;8.916;2022-08-24T16:51:57;4.90;;;2.90;;
54705;SDS011;40603;48.774;8.916;2022-08-24T16:54:23;2.35;;;1.60;;
54705;SDS011;40603;48.774;8.916;2022-08-24T16:56:50;4.45;;;2.50;;
54705;SDS011;40603;48.774;8.916;2022-08-24T16:59:18;5.28;;;1.70;;
54705;SDS011;40603;48.774;8.916;2022-08-24T17:01:47;1.90;;;1.60;;
54705;SDS011;40603;48.774;8.916;2022-08-24T17:04:13;2.22;;;1.35;;
54705;SDS011;40603;48.774;8.916;2022-08-24T17:06:39;1.73;;;1.40;;
54705;SDS011;40603;48.774;8.916;2022-08-24T17:09:04;2.67;;;1.67;;
54705;SDS011;40603;48.774;8.916;2022-08-24T17:11:30;2.08;;;1.30;;
54705;SDS011;40603;48.774;8.916;2022-08-24T17:13:55;2.63;;;1.48;;
54705;SDS011;40603;48.774;8.916;2022-08-24T17:16:20;1.88;;;1.40;;
54705;SDS011;40603;48.774;8.916;2022-08-24T17:18:46;1.25;;;1.13;;
54705;SDS011;40603;48.774;8.916;2022-08-24T17:21:11;3.67;;;1.50;;
54705;SDS011;40603;48.774;8.916;2022-08-24T17:23:37;1.88;;;1.60;;
54705;SDS011;40603;48.774;8.916;2022-08-24T17:26:03;2.03;;;1.30;;
54705;SDS011;40603;48.774;8.916;2022-08-24T17:28:30;2.95;;;1.20;;
54705;SDS011;40603;48.774;8.916;2022-08-24T17:30:56;3.72;;;1.52;;
54705;SDS011;40603;48.774;8.916;2022-08-24T17:33:21;3.67;;;1.60;;
54705;SDS011;40603;48.774;8.916;2022-08-24T17:35:47;1.75;;;1.60;;
54705;SDS011;40603;48.774;8.916;2022-08-24T17:38:13;2.83;;;1.25;;
54705;SDS011;40603;48.774;8.916;2022-08-24T17:40:38;1.65;;;1.27;;
54705;SDS011;40603;48.774;8.916;2022-08-24T17:43:03;1.88;;;1.27;;
54705;SDS011;40603;48.774;8.916;2022-08-24T17:45:29;1.88;;;1.30;;
54705;SDS011;40603;48.774;8.916;2022-08-24T17:47:54;1.98;;;1.40;;
54705;SDS011;40603;48.774;8.916;2022-08-24T17:50:20;1.77;;;1.40;;
54705;SDS011;40603;48.774;8.916;2022-08-24T17:52:45;1.27;;;1.17;;
54705;SDS011;40603;48.774;8.916;2022-08-24T17:55:12;2.95;;;1.55;;
54705;SDS011;40603;48.774;8.916;2022-08-24T17:57:38;3.00;;;1.30;;
54705;SDS011;40603;48.774;8.916;2022-08-24T18:00:05;2.15;;;1.48;;
54705;SDS011;40603;48.774;8.916;2022-08-24T18:02:32;3.53;;;1.38;;
54705;SDS011;40603;48.774;8.916;2022-08-24T18:04:58;3.95;;;1.40;;
54705;SDS011;40603;48.774;8.916;2022-08-24T18:07:24;2.42;;;1.60;;
54705;SDS011;40603;48.774;8.916;2022-08-24T18:09:50;3.38;;;1.40;;
54705;SDS011;40603;48.774;8.916;2022-08-24T18:12:19;3.63;;;1.48;;
54705;SDS011;40603;48.774;8.916;2022-08-24T18:14:47;5.28;;;1.55;;
54705;SDS011;40603;48.774;8.916;2022-08-24T18:17:14;3.42;;;1.70;;
54705;SDS011;40603;48.774;8.916;2022-08-24T18:19:43;1.65;;;1.42;;